createdAt,value
2023-02-06T00:02:09.943Z,-5.10
2023-02-06T00:07:11.857Z,-5.30
2023-02-06T00:12:13.983Z,-5.30
2023-02-06T00:17:15.897Z,-5.20
2023-02-06T00:22:17.668Z,-5.20
2023-02-06T00:27:19.490Z,-5.10
2023-02-06T00:32:21.426Z,-5.10
2023-02-06T00:37:23.376Z,-5.20
2023-02-06T00:42:25.176Z,-5.20
2023-02-06T00:47:26.976Z,-5.20
2023-02-06T00:52:28.785Z,-5.30
2023-02-06T00:57:30.652Z,-5.40
2023-02-06T01:02:32.537Z,-5.40
2023-02-06T01:07:36.432Z,-5.50
2023-02-06T01:17:41.833Z,-5.60
2023-02-06T01:22:43.628Z,-5.50
2023-02-06T01:27:47.051Z,-5.50
2023-02-06T01:32:48.944Z,-5.60
2023-02-06T01:37:50.836Z,-5.60
2023-02-06T01:42:53.452Z,-5.90
2023-02-06T01:48:03.131Z,-6.00
2023-02-06T01:53:06.417Z,-5.90
2023-02-06T01:58:11.200Z,-5.80
2023-02-06T02:03:13.389Z,-5.90
2023-02-06T02:08:20.745Z,-5.90
2023-02-06T02:13:22.599Z,-5.90
2023-02-06T02:18:35.558Z,-5.90
2023-02-06T02:23:45.587Z,-6.00
2023-02-06T02:29:28.834Z,-6.00
2023-02-06T02:35:07.071Z,-6.00
2023-02-06T02:40:44.720Z,-5.50
2023-02-06T02:45:59.913Z,-6.10
2023-02-06T02:51:02.351Z,-6.10
2023-02-06T02:56:17.871Z,-6.30
2023-02-06T03:01:26.928Z,-6.30
2023-02-06T03:07:06.920Z,-6.30
2023-02-06T03:12:36.903Z,-6.30
2023-02-06T03:17:48.109Z,-6.40
2023-02-06T03:22:51.971Z,-6.30
2023-02-06T03:27:56.996Z,-6.50
2023-02-06T03:33:06.120Z,-6.50
2023-02-06T03:38:09.296Z,-6.50
2023-02-06T03:43:18.570Z,-6.50
2023-02-06T03:48:37.174Z,-6.50
2023-02-06T03:53:40.714Z,-6.60
2023-02-06T03:58:42.562Z,-6.60
2023-02-06T04:03:44.683Z,-6.60
2023-02-06T04:08:46.483Z,-6.70
2023-02-06T04:13:48.294Z,-6.70
2023-02-06T04:18:51.116Z,-6.80
2023-02-06T04:23:52.983Z,-6.60
2023-02-06T04:28:55.018Z,-6.60
2023-02-06T04:33:56.811Z,-6.70
2023-02-06T04:38:59.475Z,-6.80
2023-02-06T04:44:01.364Z,-6.90
2023-02-06T04:49:03.626Z,-6.90
2023-02-06T04:54:06.091Z,-6.80
2023-02-06T04:59:07.863Z,-6.90
2023-02-06T05:04:09.979Z,-6.90
2023-02-06T05:09:11.752Z,-6.80
2023-02-06T05:14:13.606Z,-6.80
2023-02-06T05:19:15.398Z,-6.90
2023-02-06T05:24:17.270Z,-6.90
2023-02-06T05:29:19.083Z,-6.90
2023-02-06T05:34:20.901Z,-6.80
2023-02-06T05:39:22.997Z,-6.80
2023-02-06T05:44:24.913Z,-6.70
2023-02-06T05:49:26.695Z,-6.70
2023-02-06T05:54:28.512Z,-6.60
2023-02-06T05:59:30.354Z,-6.50
2023-02-06T06:04:32.280Z,-6.60
2023-02-06T06:09:34.222Z,-6.50
2023-02-06T06:14:35.982Z,-6.40
2023-02-06T06:19:37.872Z,-6.50
2023-02-06T06:24:39.738Z,-6.40
2023-02-06T06:29:41.507Z,-6.40
2023-02-06T06:34:43.286Z,-6.30
2023-02-06T06:39:45.112Z,-6.30
2023-02-06T06:44:46.874Z,-6.40
2023-02-06T06:49:48.623Z,-6.40
2023-02-06T06:54:51.993Z,-6.50
2023-02-06T06:59:54.218Z,-6.50
2023-02-06T07:04:56.222Z,-6.30
2023-02-06T07:09:59.673Z,-6.30
2023-02-06T07:15:01.453Z,-6.20
2023-02-06T07:20:03.913Z,-6.10
2023-02-06T07:25:06.643Z,-6.00
2023-02-06T07:30:09.291Z,-5.90
2023-02-06T07:35:11.354Z,-5.70
2023-02-06T07:40:13.335Z,-5.40
2023-02-06T07:45:15.594Z,-5.10
2023-02-06T07:50:17.469Z,-5.10
2023-02-06T07:55:19.243Z,-5.00
2023-02-06T08:00:21.254Z,-4.80
2023-02-06T08:05:23.100Z,-4.30
2023-02-06T08:10:25.018Z,-4.10
2023-02-06T08:15:26.892Z,-3.60
2023-02-06T08:20:28.766Z,-3.40
2023-02-06T08:25:30.731Z,-3.00
2023-02-06T08:30:34.386Z,-2.80
2023-02-06T08:35:36.480Z,-2.80
2023-02-06T08:40:38.356Z,-2.70
2023-02-06T08:45:40.163Z,-2.40
2023-02-06T08:50:42.201Z,-2.30
2023-02-06T08:55:44.035Z,-2.20
2023-02-06T09:00:45.813Z,-2.20
2023-02-06T09:05:47.680Z,-2.10
2023-02-06T09:10:49.412Z,-1.90
2023-02-06T09:15:53.109Z,-1.80
2023-02-06T09:21:12.758Z,-1.80
2023-02-06T09:26:17.691Z,-1.80
2023-02-06T09:31:20.119Z,-1.70
2023-02-06T09:36:22.536Z,-1.60
2023-02-06T09:41:27.461Z,-1.50
2023-02-06T09:46:32.591Z,-1.50
2023-02-06T09:52:06.289Z,-1.50
2023-02-06T09:57:11.426Z,-1.50
2023-02-06T10:02:28.936Z,-1.40
2023-02-06T10:07:39.427Z,-1.40
2023-02-06T10:12:46.395Z,-1.30
2023-02-06T10:17:57.058Z,-1.20
2023-02-06T10:23:15.847Z,-1.10
2023-02-06T10:28:22.484Z,-1.10
2023-02-06T10:33:32.668Z,-1.00
2023-02-06T10:38:49.555Z,-0.90
2023-02-06T10:43:51.367Z,-0.70
2023-02-06T10:49:01.019Z,-0.60
2023-02-06T10:54:12.456Z,-0.50
2023-02-06T10:59:44.847Z,-0.40
2023-02-06T11:04:52.362Z,-0.40
2023-02-06T11:09:54.248Z,-0.30
2023-02-06T11:14:57.990Z,-0.20
2023-02-06T11:20:21.783Z,-0.20
2023-02-06T11:25:31.901Z,0.10
2023-02-06T11:30:37.858Z,-0.10
2023-02-06T11:36:00.463Z,0.00
2023-02-06T11:41:03.872Z,0.30
2023-02-06T11:46:12.806Z,0.40
2023-02-06T11:51:16.824Z,0.40
2023-02-06T11:56:21.353Z,0.30
2023-02-06T12:01:23.177Z,0.30
2023-02-06T12:06:34.884Z,0.30
2023-02-06T12:11:54.031Z,0.20
2023-02-06T12:16:56.580Z,0.20
2023-02-06T12:22:04.704Z,0.20
2023-02-06T12:27:20.594Z,0.20
2023-02-06T12:32:29.408Z,0.00
2023-02-06T12:37:43.868Z,0.00
2023-02-06T12:42:56.417Z,0.00
2023-02-06T12:48:06.540Z,-0.10
2023-02-06T12:53:26.282Z,-0.20
2023-02-06T12:58:36.798Z,-0.20
2023-02-06T13:03:51.016Z,-0.10
2023-02-06T13:09:02.308Z,0.00
2023-02-06T13:14:18.101Z,-0.10
2023-02-06T13:19:48.078Z,0.00
2023-02-06T13:24:51.374Z,0.00
2023-02-06T13:29:56.503Z,0.10
2023-02-06T13:35:27.340Z,0.10
2023-02-06T13:40:30.675Z,0.10
2023-02-06T13:45:42.328Z,0.10
2023-02-06T13:50:56.247Z,0.00
2023-02-06T13:56:19.003Z,0.10
2023-02-06T14:01:27.861Z,0.10
2023-02-06T14:06:58.754Z,0.10
2023-02-06T14:12:34.993Z,0.10
2023-02-06T14:17:46.400Z,0.00
2023-02-06T14:23:14.712Z,0.00
2023-02-06T14:28:43.177Z,-0.10
2023-02-06T14:34:03.723Z,-0.20
2023-02-06T14:39:24.010Z,-0.20
2023-02-06T14:44:31.542Z,-0.30
2023-02-06T14:49:36.467Z,-0.40
2023-02-06T14:54:39.023Z,-0.40
2023-02-06T14:59:50.631Z,-0.40
2023-02-06T15:04:52.535Z,-0.40
2023-02-06T15:09:57.728Z,-0.50
2023-02-06T15:15:04.562Z,-0.50
2023-02-06T15:20:33.481Z,-0.60
2023-02-06T15:25:56.934Z,-0.60
2023-02-06T15:31:00.715Z,-0.60
2023-02-06T15:36:04.566Z,-0.70
2023-02-06T15:41:08.600Z,-0.80
2023-02-06T15:46:10.781Z,-0.90
2023-02-06T15:51:27.461Z,-1.00
2023-02-06T15:56:35.955Z,-1.00
2023-02-06T16:01:41.027Z,-1.00
2023-02-06T16:06:43.372Z,-0.90
2023-02-06T16:11:49.081Z,-0.90
2023-02-06T16:17:05.688Z,-0.90
2023-02-06T16:22:21.278Z,-1.00
2023-02-06T16:27:27.095Z,-1.20
2023-02-06T16:32:31.341Z,-1.30
2023-02-06T16:37:33.173Z,-1.30
2023-02-06T16:42:37.274Z,-1.40
2023-02-06T16:47:39.076Z,-1.50
2023-02-06T16:52:46.568Z,-1.60
2023-02-06T16:57:49.726Z,-1.50
2023-02-06T17:02:53.204Z,-1.70
2023-02-06T17:07:55.435Z,-1.90
2023-02-06T17:12:57.207Z,-2.10
2023-02-06T17:17:58.971Z,-2.20
2023-02-06T17:23:01.273Z,-2.10
2023-02-06T17:28:06.943Z,-2.30
2023-02-06T17:33:08.963Z,-2.30
2023-02-06T17:38:10.836Z,-2.60
2023-02-06T17:43:12.638Z,-2.60
2023-02-06T17:48:14.786Z,-2.50
2023-02-06T17:53:17.830Z,-2.60
2023-02-06T17:58:20.614Z,-2.80
2023-02-06T18:03:22.423Z,-2.80
2023-02-06T18:08:24.251Z,-3.00
2023-02-06T18:13:27.870Z,-3.10
2023-02-06T18:18:31.149Z,-3.00
2023-02-06T18:23:33.032Z,-3.00
2023-02-06T18:28:36.436Z,-3.10
2023-02-06T18:33:38.202Z,-3.30
2023-02-06T18:38:40.040Z,-3.40
2023-02-06T18:43:41.831Z,-3.50
2023-02-06T18:48:43.647Z,-3.60
2023-02-06T18:53:45.482Z,-3.80
2023-02-06T18:58:47.377Z,-3.90
2023-02-06T19:03:50.660Z,-4.00
2023-02-06T19:08:52.500Z,-4.10
2023-02-06T19:13:55.200Z,-4.20
2023-02-06T19:18:57.111Z,-4.10
2023-02-06T19:24:00.162Z,-4.20
2023-02-06T19:29:04.121Z,-4.00
2023-02-06T19:34:06.315Z,-3.90
2023-02-06T19:39:11.687Z,-3.90
2023-02-06T19:44:14.350Z,-3.90
2023-02-06T19:49:16.247Z,-3.90
2023-02-06T19:54:18.508Z,-3.80
2023-02-06T19:59:26.386Z,-3.70
2023-02-06T20:04:34.118Z,-3.90
2023-02-06T20:09:41.103Z,-4.10
2023-02-06T20:14:42.882Z,-4.10
2023-02-06T20:19:44.626Z,-4.10
2023-02-06T20:24:46.434Z,-4.10
2023-02-06T20:29:48.233Z,-4.10
2023-02-06T20:34:49.999Z,-4.20
2023-02-06T20:39:52.200Z,-4.10
2023-02-06T20:44:54.131Z,-4.10
2023-02-06T20:49:55.999Z,-4.20
2023-02-06T20:54:57.745Z,-4.30
2023-02-06T20:59:59.668Z,-4.30
2023-02-06T21:05:01.562Z,-4.50
2023-02-06T21:10:04.515Z,-4.80
2023-02-06T21:15:06.889Z,-4.80
2023-02-06T21:20:09.642Z,-4.90
2023-02-06T21:25:11.403Z,-4.90
2023-02-06T21:30:13.700Z,-4.90
2023-02-06T21:35:15.540Z,-5.00
2023-02-06T21:40:17.519Z,-5.10
2023-02-06T21:45:19.312Z,-5.10
2023-02-06T21:50:21.204Z,-5.20
2023-02-06T21:55:23.785Z,-5.30
2023-02-06T22:00:25.672Z,-5.40
2023-02-06T22:05:29.021Z,-5.60
2023-02-06T22:10:31.590Z,-5.90
2023-02-06T22:15:33.876Z,-5.80
2023-02-06T22:20:35.662Z,-5.80
2023-02-06T22:25:37.748Z,-5.80
2023-02-06T22:30:40.949Z,-5.70
2023-02-06T22:35:42.827Z,-6.00
2023-02-06T22:40:44.634Z,-5.80
2023-02-06T22:45:49.520Z,-5.90
2023-02-06T22:50:53.360Z,-6.00
2023-02-06T22:56:16.535Z,-6.00
2023-02-06T23:01:21.116Z,-6.00
2023-02-06T23:06:23.625Z,-5.90
2023-02-06T23:11:26.313Z,-5.80
2023-02-06T23:16:29.408Z,-5.70
2023-02-06T23:21:33.140Z,-6.00
2023-02-06T23:26:35.761Z,-5.70
2023-02-06T23:31:37.698Z,-5.70
2023-02-06T23:36:39.672Z,-5.90
2023-02-06T23:41:41.714Z,-5.80
2023-02-06T23:46:43.604Z,-5.80
2023-02-06T23:51:45.426Z,-5.70
2023-02-06T23:56:47.262Z,-5.90
